Time;durP1;ratioP1;P1;durP2;ratioP2;P2;SDS_P1;SDS_P2;PMS_P1;PMS_P2;Temp;Humidity;BMP_temperature;BMP_pressure;BME280_temperature;BME280_humidity;BME280_pressure;Samples;Min_cycle;Max_cycle;Signal;HPM_P1;HPM_P2
2022/06/21 00:00:06;;;;;;;4.05;3.58;;;;;;;13.49;100.00;98217.56;4416765;32;20037;-73
2022/06/21 00:02:58;;;;;;;3.75;2.47;;;;;;;13.53;100.00;98207.78;4414918;32;20072;-72
2022/06/21 00:05:29;;;;;;;3.62;3.28;;;;;;;13.65;100.00;98205.47;4416293;32;20089;-72
2022/06/21 00:07:56;;;;;;;3.27;2.90;;;;;;;13.55;100.00;98211.03;4416525;32;20061;-73
2022/06/21 00:10:22;;;;;;;5.70;3.25;;;;;;;13.33;100.00;98219.66;4412474;32;20070;-73
2022/06/21 00:12:48;;;;;;;4.15;3.75;;;;;;;13.16;100.00;98171.41;4415660;32;20078;-71
2022/06/21 00:15:14;;;;;;;5.35;3.45;;;;;;;13.36;100.00;98192.84;4416371;32;20108;-71
2022/06/21 00:17:43;;;;;;;5.15;3.53;;;;;;;13.47;100.00;98198.12;4416160;32;20034;-72
2022/06/21 00:20:20;;;;;;;4.07;3.47;;;;;;;13.58;100.00;98194.22;4413758;32;20117;-74
2022/06/21 00:22:48;;;;;;;4.25;3.80;;;;;;;13.48;100.00;98188.91;4416070;32;20042;-73
2022/06/21 00:25:19;;;;;;;4.00;3.58;;;;;;;13.32;100.00;98190.97;4415119;32;20208;-73
2022/06/21 00:27:44;;;;;;;10.82;3.50;;;;;;;13.34;100.00;98181.50;4415653;32;20399;-73
2022/06/21 00:30:11;;;;;;;10.60;3.90;;;;;;;13.02;100.00;98166.69;4412136;32;20029;-74
2022/06/21 00:32:37;;;;;;;7.18;4.35;;;;;;;13.39;100.00;98197.66;4416089;32;20081;-71
2022/06/21 00:35:08;;;;;;;5.25;4.10;;;;;;;13.27;100.00;98194.53;4411507;32;20038;-73
2022/06/21 00:37:34;;;;;;;5.18;4.03;;;;;;;13.42;100.00;98180.88;4415980;32;20179;-73
2022/06/21 00:40:00;;;;;;;5.43;4.32;;;;;;;12.69;100.00;98136.75;4414991;32;20061;-72
2022/06/21 00:42:31;;;;;;;4.93;3.83;;;;;;;13.07;100.00;98193.66;4413154;32;20046;-72
2022/06/21 00:45:00;;;;;;;6.18;3.95;;;;;;;13.11;100.00;98179.56;4415734;32;20072;-73
2022/06/21 00:47:43;;;;;;;5.90;4.28;;;;;;;13.04;100.00;98163.72;4414890;32;20096;-73
2022/06/21 00:50:27;;;;;;;7.22;3.72;;;;;;;12.90;100.00;98125.75;4414818;32;20061;-74
2022/06/21 00:53:00;;;;;;;13.02;4.20;;;;;;;12.92;100.00;98161.38;4415900;32;20042;-73
2022/06/21 00:55:55;;;;;;;6.35;3.83;;;;;;;12.64;100.00;98109.81;4415492;32;20038;-72
2022/06/21 00:58:25;;;;;;;5.07;4.43;;;;;;;12.86;100.00;98146.31;4408411;32;20070;-73
2022/06/21 01:01:01;;;;;;;4.97;4.45;;;;;;;12.81;100.00;98143.69;4415047;32;20095;-72
2022/06/21 01:03:32;;;;;;;8.23;5.07;;;;;;;12.78;100.00;98146.94;4413590;32;20057;-72
2022/06/21 01:06:03;;;;;;;7.78;4.97;;;;;;;12.67;100.00;98160.56;4416207;32;20087;-71
2022/06/21 01:08:34;;;;;;;9.30;4.32;;;;;;;12.75;100.00;98166.41;4415284;32;20077;-72
2022/06/21 01:11:05;;;;;;;8.55;4.40;;;;;;;12.55;100.00;98157.44;4413971;32;20062;-73
2022/06/21 01:13:35;;;;;;;13.77;5.15;;;;;;;12.69;100.00;98163.78;4415576;32;20121;-71
2022/06/21 01:16:01;;;;;;;15.02;4.90;;;;;;;12.74;100.00;98164.84;4415950;32;20089;-71
2022/06/21 01:18:27;;;;;;;6.00;4.70;;;;;;;12.64;100.00;98169.22;4415761;32;20136;-71
2022/06/21 01:20:56;;;;;;;6.93;4.68;;;;;;;12.42;100.00;98144.59;4415541;32;20120;-74
2022/06/21 01:23:43;;;;;;;12.68;5.20;;;;;;;12.54;100.00;98186.34;4413115;32;20066;-72
2022/06/21 01:26:31;;;;;;;11.10;6.45;;;;;;;12.75;100.00;98166.41;4401106;32;20087;-71
2022/06/21 01:28:58;;;;;;;6.65;4.75;;;;;;;12.64;100.00;98142.22;4414312;32;20071;-71
2022/06/21 01:31:25;;;;;;;9.07;5.60;;;;;;;12.32;100.00;98165.19;4415884;32;20105;-72
2022/06/21 01:33:51;;;;;;;7.78;5.78;;;;;;;12.27;100.00;98140.94;4415483;32;20042;-71
2022/06/21 01:36:20;;;;;;;8.30;5.65;;;;;;;12.01;100.00;98142.22;4413748;32;20072;-72
2022/06/21 01:38:57;;;;;;;6.72;5.28;;;;;;;12.46;100.00;98170.75;4412763;32;20065;-72
2022/06/21 01:41:30;;;;;;;10.15;5.80;;;;;;;12.43;100.00;98182.09;4415284;32;20072;-71
2022/06/21 01:44:01;;;;;;;12.05;5.55;;;;;;;12.57;100.00;98187.63;4414998;32;20058;-72
2022/06/21 01:46:31;;;;;;;4.97;4.50;;;;;;;12.32;100.00;98180.56;4413524;32;20056;-72
2022/06/21 01:49:07;;;;;;;9.10;6.10;;;;;;;12.15;100.00;98132.38;4415491;32;20171;-72
2022/06/21 01:51:38;;;;;;;10.20;7.03;;;;;;;12.35;100.00;98170.00;4415427;32;20413;-72
2022/06/21 01:54:08;;;;;;;11.32;5.53;;;;;;;12.46;100.00;98164.53;4415292;32;20096;-75
2022/06/21 01:56:38;;;;;;;7.20;5.93;;;;;;;12.28;100.00;98123.63;4397566;32;20467;-72
2022/06/21 01:59:13;;;;;;;5.70;4.62;;;;;;;12.11;100.00;98098.94;4414945;32;20482;-74
2022/06/21 02:01:42;;;;;;;15.93;5.97;;;;;;;12.32;100.00;98157.09;4409837;32;20073;-72
2022/06/21 02:04:10;;;;;;;8.82;6.50;;;;;;;12.22;100.00;98175.25;4412020;32;20110;-72
2022/06/21 02:06:41;;;;;;;9.70;6.28;;;;;;;12.23;100.00;98166.88;4417504;32;20080;-72
2022/06/21 02:09:34;;;;;;;10.45;6.12;;;;;;;12.09;100.00;98165.88;4418282;32;20081;-72
2022/06/21 02:12:11;;;;;;;8.27;6.28;;;;;;;12.02;100.00;98133.03;4414936;32;20110;-72
2022/06/21 02:14:42;;;;;;;6.72;5.35;;;;;;;12.18;100.00;98142.63;4417879;32;20046;-71
2022/06/21 02:17:38;;;;;;;7.80;5.65;;;;;;;12.21;100.00;98136.66;4418242;32;20061;-71
2022/06/21 02:20:12;;;;;;;7.60;6.10;;;;;;;12.12;100.00;98135.66;4418081;32;20049;-71
2022/06/21 02:22:40;;;;;;;10.43;6.43;;;;;;;12.19;100.00;98176.62;4418089;32;20034;-71
2022/06/21 02:25:14;;;;;;;7.20;5.25;;;;;;;12.04;100.00;98152.44;4427234;32;20054;-72
2022/06/21 02:27:40;;;;;;;12.00;6.05;;;;;;;12.04;100.00;98163.22;4417292;32;20126;-71
2022/06/21 02:30:15;;;;;;;6.60;5.40;;;;;;;12.10;100.00;98164.81;4417867;32;20042;-72
2022/06/21 02:32:42;;;;;;;15.25;6.20;;;;;;;11.88;100.00;98128.22;4417845;32;20051;-74
2022/06/21 02:35:18;;;;;;;11.35;6.07;;;;;;;12.04;100.00;98152.44;4416088;32;20077;-72
2022/06/21 02:37:47;;;;;;;12.37;4.37;;;;;;;12.16;100.00;98144.81;4417807;32;20328;-71
2022/06/21 02:40:20;;;;;;;4.65;4.03;;;;;;;11.80;100.00;98126.13;4413190;32;20077;-71
2022/06/21 02:42:48;;;;;;;4.28;3.85;;;;;;;11.90;100.00;98136.88;4415744;32;20368;-71
2022/06/21 02:45:22;;;;;;;19.85;4.72;;;;;;;11.93;100.00;98128.22;4416850;32;20090;-72
2022/06/21 02:47:49;;;;;;;12.60;4.47;;;;;;;12.26;100.00;98177.09;4417814;32;20045;-71
2022/06/21 02:50:21;;;;;;;5.62;3.70;;;;;;;11.86;100.00;98126.91;4417803;32;20037;-71
2022/06/21 02:52:48;;;;;;;7.47;3.95;;;;;;;11.85;100.00;98144.16;4416787;32;20103;-74
2022/06/21 02:55:17;;;;;;;6.47;3.45;;;;;;;11.77;100.00;98122.09;4417002;32;20095;-71
2022/06/21 02:58:09;;;;;;;6.28;3.45;;;;;;;12.02;100.00;98138.44;4417086;32;20114;-72
2022/06/21 03:00:36;;;;;;;4.32;2.80;;;;;;;11.87;100.00;98121.25;4385523;32;20034;-75
2022/06/21 03:03:05;;;;;;;6.03;2.87;;;;;;;11.81;100.00;98120.44;4416504;32;20444;-73
2022/06/21 03:05:34;;;;;;;3.50;2.78;;;;;;;11.92;100.00;98150.91;4416978;32;20041;-72
2022/06/21 03:08:03;;;;;;;8.07;2.53;;;;;;;12.09;100.00;98165.88;4416753;32;20038;-72
2022/06/21 03:10:37;;;;;;;5.30;3.20;;;;;;;11.80;100.00;98159.28;4417107;32;20286;-74
2022/06/21 03:13:10;;;;;;;3.87;2.67;;;;;;;11.71;100.00;98168.25;4416904;32;20991;-72
2022/06/21 03:15:36;;;;;;;6.12;2.90;;;;;;;11.71;100.00;98168.25;4417342;32;20336;-72
2022/06/21 03:18:14;;;;;;;3.60;2.97;;;;;;;11.48;100.00;98184.00;4416809;32;20431;-72
2022/06/21 03:20:41;;;;;;;2.60;2.40;;;;;;;11.69;100.00;98165.81;4416861;32;20046;-72
2022/06/21 03:23:12;;;;;;;4.55;2.55;;;;;;;11.49;100.00;98145.19;4417111;32;20043;-73
2022/06/21 03:25:48;;;;;;;3.45;2.85;;;;;;;11.86;100.00;98178.16;4417158;32;20050;-73
2022/06/21 03:28:23;;;;;;;7.65;2.50;;;;;;;11.38;100.00;98141.72;4413887;32;20062;-73
2022/06/21 03:30:52;;;;;;;2.45;2.25;;;;;;;11.58;100.00;98130.03;4416263;32;20060;-72
2022/06/21 03:33:18;;;;;;;5.93;2.53;;;;;;;11.57;100.00;98182.34;4417378;32;20376;-72
2022/06/21 03:35:44;;;;;;;10.85;2.83;;;;;;;11.62;100.00;98190.41;4414998;32;20085;-73
2022/06/21 03:38:10;;;;;;;7.65;2.90;;;;;;;11.27;100.00;98167.91;4413842;32;20062;-73
2022/06/21 03:43:29;;;;;;;9.95;2.42;;;;;;;11.37;100.00;98195.91;4417922;32;20105;-73
2022/06/21 03:45:58;;;;;;;2.47;2.20;;;;;;;11.17;100.00;98157.16;4417629;32;20062;-72
2022/06/21 03:48:33;;;;;;;6.70;2.65;;;;;;;11.57;100.00;98193.13;4417892;32;20074;-72
2022/06/21 03:51:08;;;;;;;3.60;2.72;;;;;;;11.64;100.00;98182.84;4415963;32;20087;-71
2022/06/21 03:54:00;;;;;;;6.20;2.62;;;;;;;11.78;100.00;98187.63;4416204;32;20038;-71
2022/06/21 03:56:36;;;;;;;4.30;2.42;;;;;;;11.73;100.00;98184.97;4416669;32;20046;-71
2022/06/21 03:59:10;;;;;;;4.80;2.22;;;;;;;11.77;100.00;98175.22;4416076;32;20125;-72
2022/06/21 04:01:52;;;;;;;2.78;2.40;;;;;;;11.55;100.00;98189.91;4416336;32;20414;-71
2022/06/21 04:04:38;;;;;;;4.10;2.12;;;;;;;11.26;100.00;98128.56;4416409;32;20407;-71
2022/06/21 04:07:21;;;;;;;4.68;2.20;;;;;;;11.51;100.00;98140.31;4414958;32;20070;-72
2022/06/21 04:09:59;;;;;;;2.75;2.42;;;;;;;11.55;100.00;98173.72;4418289;32;20089;-71
2022/06/21 04:12:39;;;;;;;2.50;2.33;;;;;;;11.62;100.00;98185.00;4414001;32;20046;-72
2022/06/21 04:15:13;;;;;;;4.03;2.50;;;;;;;11.48;100.00;98200.16;4401353;32;20058;-71
2022/06/21 04:17:56;;;;;;;5.12;2.62;;;;;;;11.25;100.00;98148.50;4401567;32;20047;-72
2022/06/21 04:20:39;;;;;;;2.95;2.28;;;;;;;11.44;100.00;98153.31;4401697;32;20058;-72
2022/06/21 04:23:15;;;;;;;5.18;2.53;;;;;;;11.44;100.00;98193.72;4401302;32;20382;-73
2022/06/21 04:26:01;;;;;;;3.67;2.42;;;;;;;11.31;100.00;98167.34;4412993;32;20106;-73
2022/06/21 04:28:32;;;;;;;2.50;2.25;;;;;;;11.41;100.00;98194.28;4414440;32;20058;-72
2022/06/21 04:31:05;;;;;;;2.30;2.20;;;;;;;11.75;100.00;98178.19;4416083;32;20084;-71
2022/06/21 04:33:37;;;;;;;2.22;2.08;;;;;;;11.44;100.00;98193.72;4426847;32;20348;-72
2022/06/21 04:36:16;;;;;;;8.75;1.92;;;;;;;11.79;100.00;98205.41;4415378;32;20145;-71
2022/06/21 04:39:09;;;;;;;2.30;2.17;;;;;;;11.78;100.00;98195.72;4415985;32;20434;-70
2022/06/21 04:41:54;;;;;;;6.10;2.45;;;;;;;11.93;100.00;98195.66;4415660;32;20118;-71
2022/06/21 04:44:31;;;;;;;4.60;1.85;;;;;;;11.55;100.00;98205.25;4415740;32;20050;-70
2022/06/21 04:47:05;;;;;;;4.57;2.50;;;;;;;11.33;100.00;98213.69;4416158;32;20436;-70
2022/06/21 04:49:37;;;;;;;4.62;2.85;;;;;;;11.62;100.00;98220.06;4414331;32;20057;-70
2022/06/21 04:52:30;;;;;;;4.62;2.35;;;;;;;11.75;100.00;98215.16;4401217;32;20096;-71
2022/06/21 04:54:56;;;;;;;4.05;2.33;;;;;;;11.73;100.00;98212.75;4415072;32;20050;-70
2022/06/21 04:57:32;;;;;;;2.70;2.35;;;;;;;11.26;100.00;98204.03;4414788;32;20393;-70
2022/06/21 05:00:05;;;;;;;5.37;2.40;;;;;;;11.30;100.00;98171.94;4415780;32;20410;-71
2022/06/21 05:02:43;;;;;;;2.55;2.35;;;;;;;11.64;100.00;98209.00;4414902;32;20042;-72
2022/06/21 05:05:17;;;;;;;2.12;1.80;;;;;;;11.40;100.00;98171.87;4415869;32;20042;-72
2022/06/21 05:10:44;;;;;;;2.67;2.50;;;;;;;11.70;100.00;98196.31;4415443;32;20041;-72
2022/06/21 05:13:19;;;;;;;2.83;2.62;;;;;;;11.93;100.00;98195.66;4415038;32;20141;-72
2022/06/21 05:15:45;;;;;;;2.28;2.08;;;;;;;12.07;100.00;98200.44;4413994;32;20074;-72
2022/06/21 05:18:17;;;;;;;3.00;2.45;;;;;;;11.76;100.00;98203.28;4415550;32;20495;-72
2022/06/21 05:20:53;;;;;;;2.05;1.95;;;;;;;11.67;100.00;98164.50;4415085;32;20093;-72
2022/06/21 05:23:22;;;;;;;2.53;2.33;;;;;;;11.99;100.00;98199.12;4400671;32;20050;-74
2022/06/21 05:25:50;;;;;;;3.67;2.17;;;;;;;11.37;100.00;98160.88;4414614;32;20185;-72
2022/06/21 05:28:28;;;;;;;7.50;1.95;;;;;;;11.95;100.00;98198.91;4415416;32;20376;-71
2022/06/21 05:31:07;;;;;;;7.47;2.30;;;;;;;11.40;100.00;98165.69;4416048;32;20096;-71
2022/06/21 05:33:44;;;;;;;2.85;2.10;;;;;;;11.61;100.00;98180.69;4415874;32;20065;-71
2022/06/21 05:36:15;;;;;;;3.62;2.20;;;;;;;11.42;100.00;98160.84;4413843;32;20391;-72
2022/06/21 05:38:51;;;;;;;5.50;3.33;;;;;;;11.71;100.00;98166.38;4415803;32;20457;-76
2022/06/21 05:41:29;;;;;;;4.50;1.90;;;;;;;12.08;100.00;98207.47;4417170;32;20362;-71
2022/06/21 05:44:12;;;;;;;6.40;1.90;;;;;;;11.55;100.00;98219.56;4418711;32;20042;-72
2022/06/21 05:46:46;;;;;;;2.90;1.67;;;;;;;11.92;100.00;98204.84;4416523;32;20049;-71
2022/06/21 05:49:27;;;;;;;1.95;1.60;;;;;;;11.80;100.00;98228.62;4418429;32;20109;-70
2022/06/21 05:51:57;;;;;;;7.00;3.57;;;;;;;12.03;100.00;98237.16;4414690;32;20109;-71
2022/06/21 05:54:29;;;;;;;2.28;1.85;;;;;;;12.15;100.00;98213.34;4388082;32;20051;-69
2022/06/21 05:56:55;;;;;;;1.87;1.75;;;;;;;12.01;100.00;98212.34;4416980;32;20046;-72
2022/06/21 05:59:23;;;;;;;3.25;1.98;;;;;;;11.96;100.00;98173.50;4418194;32;20038;-72
2022/06/21 06:01:57;;;;;;;8.63;1.50;;;;;;;11.56;100.00;98175.31;4417107;32;20034;-74
2022/06/21 06:04:45;;;;;;;3.33;2.05;;;;;;;12.29;100.00;98244.00;4418714;32;20105;-70
2022/06/21 06:07:18;;;;;;;3.20;1.92;;;;;;;12.34;100.00;98225.06;4417561;32;20077;-70
2022/06/21 06:09:49;;;;;;;1.52;1.42;;;;;;;12.12;100.00;98232.78;4416857;32;20039;-70
2022/06/21 06:12:21;;;;;;;1.40;1.40;;;;;;;11.97;100.00;98241.78;4417469;32;20854;-72
2022/06/21 06:14:52;;;;;;;3.78;2.87;;;;;;;12.11;100.00;98223.91;4418402;32;20035;-69
2022/06/21 06:17:42;;;;;;;1.70;1.60;;;;;;;12.14;100.00;98211.72;4417454;32;20077;-70
2022/06/21 06:20:20;;;;;;;3.72;2.37;;;;;;;12.52;100.00;98217.41;4401882;32;20054;-70
2022/06/21 06:22:56;;;;;;;1.40;1.30;;;;;;;12.80;100.00;98233.94;4403161;32;20373;-69
2022/06/21 06:25:38;;;;;;;1.65;1.60;;;;;;;12.63;100.00;98224.31;4405634;32;20084;-69
2022/06/21 06:28:32;;;;;;;28.45;2.95;;;;;;;12.74;100.00;98218.84;4413974;32;20042;-69
2022/06/21 06:31:04;;;;;;;4.00;1.73;;;;;;;12.77;100.00;98210.19;4417030;32;20058;-69
2022/06/21 06:33:38;;;;;;;3.67;1.45;;;;;;;12.57;100.00;98209.25;4404273;32;20109;-70
2022/06/21 06:36:10;;;;;;;2.28;1.50;;;;;;;12.62;100.00;98211.94;4416822;32;20177;-69
2022/06/21 06:38:37;;;;;;;4.25;1.50;;;;;;;12.63;100.00;98218.91;4415545;32;20034;-70
2022/06/21 06:41:26;;;;;;;2.55;1.70;;;;;;;12.64;100.00;98225.94;4416603;32;20237;-69
2022/06/21 06:43:59;;;;;;;1.70;1.60;;;;;;;12.53;100.00;98175.81;4412278;32;20071;-69
2022/06/21 06:46:37;;;;;;;4.05;1.50;;;;;;;12.41;100.00;98178.87;4397359;32;20046;-71
2022/06/21 06:49:54;;;;;;;1.92;1.83;;;;;;;12.62;100.00;98211.94;4404897;32;20066;-68
2022/06/21 06:52:28;;;;;;;4.32;1.80;;;;;;;12.69;100.00;98234.00;4381699;32;20053;-69
2022/06/21 06:55:28;;;;;;;3.20;2.05;;;;;;;12.86;100.00;98206.56;4417068;32;20042;-69
2022/06/21 06:58:03;;;;;;;1.85;1.37;;;;;;;12.65;100.00;98211.38;4417010;32;20424;-68
2022/06/21 07:00:39;;;;;;;4.28;1.60;;;;;;;12.63;100.00;98223.53;4417527;32;20033;-69
2022/06/21 07:03:16;;;;;;;1.12;1.12;;;;;;;12.59;100.00;98212.50;4416932;32;20050;-69
2022/06/21 07:06:04;;;;;;;10.05;1.40;;;;;;;12.41;100.00;98242.84;4427977;32;20050;-69
2022/06/21 07:08:51;;;;;;;1.40;1.30;;;;;;;12.91;100.00;98224.63;4414941;32;20064;-70
2022/06/21 07:11:21;;;;;;;4.12;1.23;;;;;;;12.82;100.00;98183.91;4428695;32;20091;-70
2022/06/21 07:13:47;;;;;;;1.77;1.48;;;;;;;12.91;100.00;98181.41;4417202;32;20034;-73
2022/06/21 07:16:19;;;;;;;1.15;1.08;;;;;;;12.60;100.00;98219.47;4416759;32;20102;-75
2022/06/21 07:18:48;;;;;;;2.95;1.30;;;;;;;12.64;100.00;98198.94;4415174;32;20050;-72
2022/06/21 07:21:15;;;;;;;4.57;1.55;;;;;;;12.82;100.00;98223.63;4408513;32;20073;-70
2022/06/21 07:23:41;;;;;;;4.07;1.27;;;;;;;13.09;100.00;98245.53;4417057;32;20092;-69
2022/06/21 07:26:14;;;;;;;5.97;2.83;;;;;;;13.13;100.00;98228.75;4421389;32;20047;-73
2022/06/21 07:28:51;;;;;;;1.20;1.20;;;;;;;13.34;100.00;98249.09;4414232;32;20039;-74
2022/06/21 07:31:23;;;;;;;4.60;1.30;;;;;;;12.92;100.00;98249.75;4416497;32;20063;-73
2022/06/21 07:34:09;;;;;;;;;;;;;;;13.12;100.00;98268.47;4415378;32;20033;-74
2022/06/21 07:36:50;;;;;;;2.78;0.93;;;;;;;12.92;100.00;98239.75;4414440;32;20840;-74
2022/06/21 07:39:26;;;;;;;1.27;1.15;;;;;;;12.82;100.00;98254.16;4416780;32;20136;-74
2022/06/21 07:42:06;;;;;;;1.62;1.42;;;;;;;12.43;100.00;98241.50;4414876;32;20165;-73
2022/06/21 07:44:47;;;;;;;2.60;0.82;;;;;;;12.69;100.00;98207.00;4416340;32;20083;-74
2022/06/21 07:47:21;;;;;;;1.50;0.82;;;;;;;13.12;100.00;98221.75;4412480;32;20086;-74
2022/06/21 07:49:54;;;;;;;5.80;1.20;;;;;;;13.23;100.00;98247.56;4396139;32;20062;-74
2022/06/21 07:52:33;;;;;;;1.75;1.12;;;;;;;13.12;100.00;98202.81;4403608;32;20432;-74
2022/06/21 07:55:02;;;;;;;0.70;0.70;;;;;;;13.12;100.00;98262.28;4414039;32;20039;-74
2022/06/21 07:57:33;;;;;;;1.20;1.20;;;;;;;12.88;100.00;98268.44;4415241;32;20174;-74
2022/06/21 08:00:06;;;;;;;1.80;1.12;;;;;;;13.33;100.00;98252.88;4416604;32;20042;-74
2022/06/21 08:08:37;;;;;;;1.17;1.10;;;;;;;13.59;100.00;98258.00;4415600;32;19952;-74
2022/06/21 08:11:10;;;;;;;1.98;1.23;;;;;;;13.55;100.00;98265.09;4415471;32;20341;-74
2022/06/21 08:13:40;;;;;;;1.48;1.10;;;;;;;13.26;100.00;98219.97;4415255;32;20054;-74
2022/06/21 08:16:12;;;;;;;0.82;0.82;;;;;;;12.99;100.00;98226.72;4414551;32;20454;-74
2022/06/21 08:18:44;;;;;;;1.00;1.00;;;;;;;13.52;100.00;98255.66;4416671;32;20085;-76
2022/06/21 08:21:20;;;;;;;1.55;1.45;;;;;;;13.50;100.00;98267.84;4416265;32;20056;-76
2022/06/21 08:24:25;;;;;;;1.67;1.25;;;;;;;13.74;100.00;98282.19;4415166;32;20066;-76
2022/06/21 08:27:18;;;;;;;1.20;1.10;;;;;;;13.69;100.00;98259.78;4376459;32;20042;-76
2022/06/21 08:29:55;;;;;;;3.65;1.90;;;;;;;13.85;100.00;98261.22;4415761;32;20387;-75
2022/06/21 08:33:14;;;;;;;8.60;1.62;;;;;;;13.44;100.00;98242.78;4413604;32;20069;-74
2022/06/21 08:36:22;;;;;;;1.08;1.08;;;;;;;13.54;100.00;98268.91;4382526;32;20489;-74
2022/06/21 08:38:54;;;;;;;1.62;1.42;;;;;;;13.60;100.00;98305.62;4407550;32;20040;-74
2022/06/21 08:42:08;;;;;;;1.42;1.20;;;;;;;13.58;100.00;98232.06;4413504;32;20041;-74
2022/06/21 08:44:43;;;;;;;3.05;1.58;;;;;;;13.61;100.00;98269.38;4378689;32;20055;-74
2022/06/21 08:47:27;;;;;;;1.33;1.30;;;;;;;13.91;100.00;98267.38;4414641;32;20051;-74
2022/06/21 08:50:22;;;;;;;2.28;1.20;;;;;;;13.68;100.00;98236.56;4414891;32;20101;-74
2022/06/21 08:53:03;;;;;;;7.47;1.27;;;;;;;14.17;100.00;98222.63;4374370;32;20046;-74
2022/06/21 08:55:49;;;;;;;0.82;0.82;;;;;;;14.60;100.00;98264.28;4393837;32;20496;-75
2022/06/21 08:58:39;;;;;;;2.80;1.35;;;;;;;14.57;100.00;98270.25;4413434;32;20049;-74
2022/06/21 09:01:26;;;;;;;1.10;1.10;;;;;;;14.34;100.00;98248.37;4413016;32;20046;-74
2022/06/21 09:04:08;;;;;;;1.20;1.10;;;;;;;14.09;100.00;98233.31;4399360;32;20111;-74
2022/06/21 09:06:48;;;;;;;2.62;1.15;;;;;;;14.04;100.00;98269.38;4412834;32;20512;-75
2022/06/21 09:09:34;;;;;;;1.20;1.20;;;;;;;13.98;100.00;98300.31;4413097;32;20073;-73
2022/06/21 09:12:14;;;;;;;1.23;1.20;;;;;;;13.99;100.00;98253.19;4411706;32;20049;-73
2022/06/21 09:15:17;;;;;;;2.10;1.00;;;;;;;14.40;100.00;98285.13;4415240;32;20454;-73
2022/06/21 09:17:48;;;;;;;;;;;;;;;14.74;100.00;98294.94;4416181;32;20144;-74
2022/06/21 09:20:53;;;;;;;2.17;1.12;;;;;;;14.31;100.00;98305.81;4416626;32;19957;-73
2022/06/21 09:23:55;;;;;;;1.75;0.80;;;;;;;13.87;100.00;98245.50;4401978;32;20054;-74
2022/06/21 09:26:31;;;;;;;1.77;1.12;;;;;;;13.97;100.00;98261.59;4401360;32;20046;-72
2022/06/21 09:29:26;;;;;;;4.25;1.00;;;;;;;14.55;100.00;98275.97;4400822;32;20511;-74
2022/06/21 09:32:02;;;;;;;3.30;1.00;;;;;;;14.41;100.00;98292.16;4402854;32;20043;-74
2022/06/21 09:34:41;;;;;;;2.55;1.00;;;;;;;14.46;100.00;98283.94;4400745;32;20038;-74
2022/06/21 09:37:57;;;;;;;2.50;0.88;;;;;;;14.93;100.00;98269.72;4401995;32;20050;-74
2022/06/21 09:40:23;;;;;;;1.20;0.90;;;;;;;14.63;100.00;98233.88;4361816;32;20103;-76
2022/06/21 09:43:21;;;;;;;4.18;1.30;;;;;;;15.16;100.00;98268.78;4414147;32;20440;-75
2022/06/21 09:46:09;;;;;;;1.55;1.25;;;;;;;15.17;100.00;98283.94;4418848;32;20079;-72
2022/06/21 09:48:44;;;;;;;4.68;0.95;;;;;;;14.85;100.00;98239.50;4418642;32;20057;-72
2022/06/21 09:51:31;;;;;;;1.27;1.17;;;;;;;14.77;100.00;98261.81;4417968;32;20416;-73
2022/06/21 09:54:27;;;;;;;0.70;0.70;;;;;;;14.89;100.00;98291.19;4403316;32;20050;-72
2022/06/21 09:57:21;;;;;;;1.35;0.80;;;;;;;14.76;100.00;98298.19;4386362;32;20078;-73
2022/06/21 09:59:59;;;;;;;0.60;0.60;;;;;;;14.57;100.00;98289.22;4402195;32;20053;-74
2022/06/21 10:02:38;;;;;;;4.87;1.67;;;;;;;14.93;100.00;98286.78;4413324;32;20038;-72
2022/06/21 10:05:08;;;;;;;0.70;0.70;;;;;;;15.20;100.00;98264.34;4417891;32;20064;-72
2022/06/21 10:07:44;;;;;;;0.85;0.73;;;;;;;15.50;100.00;98305.59;4415360;32;20072;-72
2022/06/21 10:10:45;;;;;;;0.93;0.80;;;;;;;15.14;100.00;98281.84;4403700;32;20065;-72
2022/06/21 10:13:35;;;;;;;6.32;0.70;;;;;;;15.18;100.00;98277.41;4397990;32;20077;-72
2022/06/21 10:16:26;;;;;;;1.30;0.80;;;;;;;15.35;100.00;98293.13;4417105;32;20039;-73
2022/06/21 10:19:18;;;;;;;0.50;0.50;;;;;;;15.34;100.00;98247.31;4417621;32;20158;-71
2022/06/21 10:22:05;;;;;;;8.13;0.88;;;;;;;15.48;100.00;98242.69;4417817;32;20038;-71
2022/06/21 10:24:53;;;;;;;4.03;0.77;;;;;;;15.39;100.00;98261.56;4417686;32;20053;-72
2022/06/21 10:27:47;;;;;;;0.70;0.70;;;;;;;15.44;100.00;98252.53;4415416;32;20065;-72
2022/06/21 10:30:21;;;;;;;1.40;0.75;;;;;;;15.66;100.00;98280.88;4403940;32;20109;-71
2022/06/21 10:33:19;;;;;;;0.73;0.60;;;;;;;15.72;100.00;98301.41;4417567;32;20402;-72
2022/06/21 10:35:58;;;;;;;1.00;0.80;;;;;;;15.66;100.00;98297.16;4415683;32;20050;-72
2022/06/21 10:38:27;;;;;;;1.52;0.98;;;;;;;15.92;100.00;98286.63;4414816;32;20302;-74
2022/06/21 10:41:02;;;;;;;2.35;0.82;;;;;;;15.94;100.00;98277.09;4402835;32;20470;-72
2022/06/21 10:44:11;;;;;;;5.40;0.95;;;;;;;16.20;100.00;98283.91;4416322;32;20042;-73
2022/06/21 10:46:50;;;;;;;1.48;0.80;;;;;;;16.56;100.00;98297.50;4416802;32;20376;-72
2022/06/21 10:49:25;;;;;;;1.30;0.90;;;;;;;16.75;100.00;98294.56;4417238;32;20046;-72
2022/06/21 10:52:12;;;;;;;3.90;0.88;;;;;;;16.28;100.00;98296.75;4414425;32;20294;-73
2022/06/21 10:55:00;;;;;;;6.18;0.80;;;;;;;16.25;100.00;98303.56;4416288;32;20448;-71
2022/06/21 10:57:55;;;;;;;0.90;0.90;;;;;;;16.46;100.00;98292.25;4412960;32;20050;-73
2022/06/21 11:03:59;;;;;;;4.55;1.15;;;;;;;16.26;100.00;98282.69;4415903;32;20075;-72
2022/06/21 11:06:39;;;;;;;6.70;1.08;;;;;;;16.07;100.00;98274.66;4415434;32;20761;-71
2022/06/21 11:09:13;;;;;;;1.50;0.88;;;;;;;16.34;100.00;98307.19;4414812;32;20050;-72
2022/06/21 11:15:04;;;;;;;;;;;;;;;15.88;100.00;98316.28;4416181;32;20057;-72
2022/06/21 11:17:44;;;;;;;1.33;0.65;;;;;;;16.02;100.00;98326.34;4417035;32;20273;-73
2022/06/21 11:20:34;;;;;;;1.92;1.02;;;;;;;15.75;100.00;98333.38;4417314;32;20050;-72
2022/06/21 11:23:25;;;;;;;7.05;1.02;;;;;;;15.95;100.00;98322.09;4416539;32;20050;-72
2022/06/21 11:26:07;;;;;;;0.70;0.70;;;;;;;15.56;100.00;98298.16;4402483;32;20046;-71
2022/06/21 11:28:57;;;;;;;1.25;0.93;;;;;;;15.79;100.00;98326.25;4416261;32;20827;-72
2022/06/21 11:31:37;;;;;;;1.65;1.23;;;;;;;15.90;100.00;98324.94;4417286;32;20042;-73
2022/06/21 11:34:25;;;;;;;4.00;1.23;;;;;;;15.70;100.00;98319.88;4416158;32;20090;-72
2022/06/21 11:36:54;;;;;;;1.98;0.95;;;;;;;15.81;100.00;98334.88;4414379;32;20046;-72
2022/06/21 11:39:41;;;;;;;3.67;1.27;;;;;;;16.52;100.00;98320.94;4414513;32;20416;-73
2022/06/21 11:42:32;;;;;;;10.00;1.02;;;;;;;17.05;100.00;98319.47;4416164;32;20413;-72
2022/06/21 11:45:14;;;;;;;1.05;0.98;;;;;;;16.99;100.00;98354.16;4414508;32;20053;-72
2022/06/21 11:47:58;;;;;;;1.70;0.90;;;;;;;16.99;100.00;98354.16;4416573;32;20057;-71
2022/06/21 11:50:32;;;;;;;3.28;1.00;;;;;;;16.61;100.00;98335.41;4415216;32;20050;-73
2022/06/21 11:53:29;;;;;;;1.10;0.90;;;;;;;16.63;100.00;98325.03;4416257;32;20065;-73
2022/06/21 11:56:06;;;;;;;1.10;1.00;;;;;;;16.99;100.00;98320.69;4414594;32;20103;-73
2022/06/21 11:58:40;;;;;;;1.17;0.90;;;;;;;17.23;100.00;98315.75;4415230;32;20050;-72
2022/06/21 12:01:25;;;;;;;2.58;1.42;;;;;;;17.53;100.00;98309.81;4416399;32;20046;-72
2022/06/21 12:04:03;;;;;;;3.58;1.40;;;;;;;16.89;100.00;98338.06;4400876;32;20058;-71
2022/06/21 12:06:50;;;;;;;1.75;0.98;;;;;;;17.48;100.00;98334.44;4401573;32;20061;-72
2022/06/21 12:09:25;;;;;;;4.22;1.00;;;;;;;17.98;100.00;98334.19;4398253;32;20042;-72
2022/06/21 12:15:00;;;;;;;9.20;1.00;;;;;;;17.93;100.00;98331.63;4401114;32;20058;-72
2022/06/21 12:17:43;;;;;;;1.95;0.93;;;;;;;17.60;100.00;98361.87;4402191;32;20384;-71
2022/06/21 12:20:39;;;;;;;0.70;0.70;;;;;;;17.88;100.00;98294.44;4415187;32;20400;-74
2022/06/21 12:23:41;;;;;;;2.47;1.40;;;;;;;18.31;100.00;98342.78;4377132;32;20043;-71
2022/06/21 12:26:28;;;;;;;1.77;1.10;;;;;;;18.53;100.00;98338.34;4415409;32;20448;-71
2022/06/21 12:28:57;;;;;;;1.58;1.00;;;;;;;18.71;100.00;98336.41;4413659;32;20080;-72
2022/06/21 12:31:30;;;;;;;1.17;0.73;;;;;;;18.41;100.00;98363.50;4412811;32;20125;-71
2022/06/21 12:34:07;;;;;;;2.45;1.37;;;;;;;17.62;100.00;98359.66;4402093;32;20062;-71